Prince George Airport
CYXS : now visible

Airfield :











YOU CAN JOIN US ON...

 
LOGIN :

Register | Disclaimer

   EN    FR    IT 

 









Legend :    VFR   Marginal VFR   IFR   Intensive IFR   Very Intensive IFR
Visi :
Ceiling :
>= 8 km
>= 3000ft
5 to 8 km
1000 to 3000 ft
1500m to 5 km
500 to 1000 ft
800 to 1500m
200 to 500 ft
< 800m
< 200 ft
Symbols :   Thunderstorms  Fog  Heavy snow  Heavy precipitations  Wind > 20 kt






- Airport Elevation : 2267 ft
- IATA code : YXS


CYXS - Prince George

CURRENT METAR :
  • 110550Z AUTO 00000KT 2 1/2SM -SN BKN013 BKN022 OVC032 M07/M08 A2992 RMK VIS VRB 1-3 SLP182

EXPIRED METARs :
  • 110536Z AUTO VRB02KT 5SM -SN OVC011 M07/M08 A2992 RMK SLP182
  • 110507Z AUTO 20002KT 9SM -SN OVC011 M07/M08 A2992 RMK SLP183
  • 110447Z AUTO 00000KT 9SM OVC011 M07/M08 A2992 RMK SLP185
  • 110429Z AUTO 25002KT 9SM -SN OVC011 M07/M08 A2992 RMK SLP183
  • 110425Z AUTO 25002KT 9SM OVC011 M08/M09 A2992 RMK SLP183
  • 110411Z AUTO 21002KT 9SM -SN BKN013 M08/M09 A2991 RMK SLP181
  • 110400Z AUTO 17002KT 9SM BKN013 M08/M09 A2991 RMK SLP182
  • 110300Z AUTO 14002KT 9SM OVC013 M08/M10 A2992 RMK SLP184

TAF AMD TAF CYXS
Valid from the 11 at 01:00 until the 11 at 13:00 UTC


110104Z 1101/1113 00000KT P6SM SCT015 OVC100
TEMPO 1101/1106 3/4SM BR VV015
FM110600 VRB03KT P6SM -SN BKN015 OVC100
TEMPO 1106/1113 1SM -SN BR VV008 RMK FCST BASED ON AUTO OBS. NXT FCST BY 110700Z



MET'MAP, your aeronautical weather chart ! - Copyright ORBIFLY December 2007 - Disclaimer

ORBIFLY MET'MAP TEAM :

Programming & Development : Alexandra Zaïnal
Concept & original design : Baudouin d'Aumeries
Assistance for programming : Marc-Olivier Méhu
Technical & hardware support : Manuel Goepfert

Contact : metmap@orbifly.com




SOURCES & CREDITS :

   NOAA       Earth
Advisory